createdAt,value
2018-09-10T00:03:00.000Z,18.0
2018-09-10T00:08:00.000Z,17.9
2018-09-10T00:13:00.000Z,17.8
2018-09-10T00:18:00.000Z,17.8
2018-09-10T00:23:00.000Z,17.8
2018-09-10T00:28:00.000Z,17.8
2018-09-10T00:33:00.000Z,17.8
2018-09-10T00:38:00.000Z,17.7
2018-09-10T00:43:00.000Z,17.7
2018-09-10T00:48:00.000Z,17.6
2018-09-10T00:53:00.000Z,17.6
2018-09-10T00:58:00.000Z,17.6
2018-09-10T01:03:00.000Z,17.5
2018-09-10T01:08:00.000Z,17.5
2018-09-10T01:13:00.000Z,17.4
2018-09-10T01:18:00.000Z,17.3
2018-09-10T01:23:00.000Z,17.2
2018-09-10T01:28:00.000Z,17.2
2018-09-10T01:33:00.000Z,17.1
2018-09-10T01:38:00.000Z,17.1
2018-09-10T01:43:00.000Z,17.1
2018-09-10T01:48:00.000Z,17.2
2018-09-10T01:53:00.000Z,17.2
2018-09-10T01:58:00.000Z,17.3
2018-09-10T02:03:00.000Z,17.3
2018-09-10T02:08:00.000Z,17.3
2018-09-10T02:13:00.000Z,17.3
2018-09-10T02:18:00.000Z,17.4
2018-09-10T02:23:00.000Z,17.4
2018-09-10T02:28:00.000Z,17.4
2018-09-10T02:33:00.000Z,17.4
2018-09-10T02:38:00.000Z,17.4
2018-09-10T02:43:00.000Z,17.3
2018-09-10T02:48:00.000Z,17.2
2018-09-10T02:53:00.000Z,17.1
2018-09-10T02:58:00.000Z,17.0
2018-09-10T03:03:00.000Z,16.9
2018-09-10T03:08:00.000Z,16.9
2018-09-10T03:13:00.000Z,16.9
2018-09-10T03:18:00.000Z,16.9
2018-09-10T03:23:00.000Z,16.9
2018-09-10T03:28:00.000Z,16.8
2018-09-10T03:33:00.000Z,16.8
2018-09-10T03:38:00.000Z,16.8
2018-09-10T03:43:00.000Z,16.8
2018-09-10T03:48:00.000Z,16.7
2018-09-10T03:53:00.000Z,16.7
2018-09-10T03:58:00.000Z,16.6
2018-09-10T04:03:00.000Z,16.6
2018-09-10T04:08:00.000Z,16.6
2018-09-10T04:13:00.000Z,16.6
2018-09-10T04:18:00.000Z,16.6
2018-09-10T04:23:00.000Z,16.6
2018-09-10T04:28:00.000Z,16.6
2018-09-10T04:33:00.000Z,16.6
2018-09-10T04:38:00.000Z,16.7
2018-09-10T04:44:00.000Z,16.7
2018-09-10T04:49:00.000Z,16.6
2018-09-10T04:54:00.000Z,16.6
2018-09-10T04:59:00.000Z,16.6
2018-09-10T05:04:00.000Z,16.5
2018-09-10T05:09:00.000Z,16.5
2018-09-10T05:14:00.000Z,16.5
2018-09-10T05:19:00.000Z,16.5
2018-09-10T05:24:00.000Z,16.5
2018-09-10T05:29:00.000Z,16.5
2018-09-10T05:34:00.000Z,16.6
2018-09-10T05:39:00.000Z,16.6
2018-09-10T05:44:00.000Z,16.6
2018-09-10T05:49:00.000Z,16.7
2018-09-10T05:54:00.000Z,16.8
2018-09-10T05:59:00.000Z,16.9
2018-09-10T06:04:00.000Z,17.0
2018-09-10T06:09:00.000Z,17.1
2018-09-10T06:14:00.000Z,17.2
2018-09-10T06:19:00.000Z,17.3
2018-09-10T06:24:00.000Z,17.5
2018-09-10T06:29:00.000Z,17.6
2018-09-10T06:34:00.000Z,17.8
2018-09-10T06:39:00.000Z,18.0
2018-09-10T06:44:00.000Z,18.1
2018-09-10T06:49:00.000Z,18.3
2018-09-10T06:54:00.000Z,18.5
2018-09-10T06:59:00.000Z,18.7
2018-09-10T07:04:00.000Z,18.9
2018-09-10T07:09:00.000Z,19.0
2018-09-10T07:14:00.000Z,19.2
2018-09-10T07:19:00.000Z,19.4
2018-09-10T07:24:00.000Z,19.6
2018-09-10T07:29:00.000Z,19.8
2018-09-10T07:34:00.000Z,19.9
2018-09-10T07:39:00.000Z,20.1
2018-09-10T07:44:00.000Z,20.3
2018-09-10T07:49:00.000Z,20.4
2018-09-10T07:54:00.000Z,20.6
2018-09-10T07:59:00.000Z,20.7
2018-09-10T08:04:00.000Z,20.8
2018-09-10T08:09:00.000Z,21.0
2018-09-10T08:14:00.000Z,21.9
2018-09-10T08:19:00.000Z,23.0
2018-09-10T08:24:00.000Z,24.1
2018-09-10T08:29:00.000Z,25.2
2018-09-10T08:34:00.000Z,26.2
2018-09-10T08:39:00.000Z,27.1
2018-09-10T08:44:00.000Z,27.6
2018-09-10T08:49:00.000Z,27.6
2018-09-10T08:54:00.000Z,28.0
2018-09-10T08:59:00.000Z,28.2
2018-09-10T09:04:00.000Z,28.1
2018-09-10T09:09:00.000Z,28.3
2018-09-10T09:14:00.000Z,28.7
2018-09-10T09:19:00.000Z,29.0
2018-09-10T09:24:00.000Z,29.2
2018-09-10T09:29:00.000Z,29.2
2018-09-10T09:34:00.000Z,29.5
2018-09-10T09:39:00.000Z,29.7
2018-09-10T09:44:00.000Z,30.0
2018-09-10T09:49:00.000Z,30.6
2018-09-10T09:54:00.000Z,30.9
2018-09-10T09:59:00.000Z,30.9
2018-09-10T10:04:00.000Z,30.7
2018-09-10T10:09:00.000Z,30.6
2018-09-10T10:14:00.000Z,30.5
2018-09-10T10:19:00.000Z,30.5
2018-09-10T10:24:00.000Z,30.3
2018-09-10T10:29:00.000Z,30.1
2018-09-10T10:34:00.000Z,30.1
2018-09-10T10:40:00.000Z,30.1
2018-09-10T10:45:00.000Z,30.2
2018-09-10T10:50:00.000Z,30.1
2018-09-10T10:55:00.000Z,29.9
2018-09-10T11:00:00.000Z,29.4
2018-09-10T11:05:00.000Z,29.1
2018-09-10T11:10:00.000Z,28.8
2018-09-10T11:15:00.000Z,28.6
2018-09-10T11:20:00.000Z,28.3
2018-09-10T11:25:00.000Z,28.0
2018-09-10T11:30:00.000Z,27.7
2018-09-10T11:35:00.000Z,27.4
2018-09-10T11:40:00.000Z,27.4
2018-09-10T11:45:00.000Z,27.3
2018-09-10T11:50:00.000Z,27.1
2018-09-10T11:55:00.000Z,27.0
2018-09-10T12:00:00.000Z,27.1
2018-09-10T12:05:00.000Z,27.0
2018-09-10T12:10:00.000Z,27.0
2018-09-10T12:15:00.000Z,27.1
2018-09-10T12:20:00.000Z,27.2
2018-09-10T12:25:00.000Z,27.1
2018-09-10T12:30:00.000Z,27.1
2018-09-10T12:35:00.000Z,27.3
2018-09-10T12:40:00.000Z,27.4
2018-09-10T12:45:00.000Z,27.5
2018-09-10T12:50:00.000Z,27.6
2018-09-10T12:55:00.000Z,27.6
2018-09-10T13:00:00.000Z,27.9
2018-09-10T13:05:00.000Z,28.0
2018-09-10T13:10:00.000Z,28.3
2018-09-10T13:15:00.000Z,28.5
2018-09-10T13:20:00.000Z,28.7
2018-09-10T13:25:00.000Z,28.8
2018-09-10T13:30:00.000Z,28.8
2018-09-10T13:35:00.000Z,28.8
2018-09-10T13:40:00.000Z,28.9
2018-09-10T13:45:00.000Z,29.0
2018-09-10T13:50:00.000Z,28.8
2018-09-10T13:55:00.000Z,28.9
2018-09-10T14:00:00.000Z,28.7
2018-09-10T14:05:00.000Z,28.6
2018-09-10T14:10:00.000Z,28.6
2018-09-10T14:15:00.000Z,28.6
2018-09-10T14:20:00.000Z,28.3
2018-09-10T14:25:00.000Z,27.8
2018-09-10T14:30:00.000Z,27.5
2018-09-10T14:35:00.000Z,27.3
2018-09-10T14:40:00.000Z,27.3
2018-09-10T14:45:00.000Z,27.1
2018-09-10T14:50:00.000Z,27.1
2018-09-10T14:55:00.000Z,27.1
2018-09-10T15:00:00.000Z,27.6
2018-09-10T15:05:00.000Z,28.3
2018-09-10T15:10:00.000Z,28.0
2018-09-10T15:15:00.000Z,27.6
2018-09-10T15:20:00.000Z,27.2
2018-09-10T15:25:00.000Z,27.0
2018-09-10T15:30:00.000Z,26.7
2018-09-10T15:35:00.000Z,26.4
2018-09-10T15:40:00.000Z,26.3
2018-09-10T15:45:00.000Z,26.1
2018-09-10T15:50:00.000Z,26.0
2018-09-10T15:55:00.000Z,25.9
2018-09-10T16:00:00.000Z,25.9
2018-09-10T16:05:00.000Z,25.8
2018-09-10T16:11:00.000Z,25.7
2018-09-10T16:16:00.000Z,25.7
2018-09-10T16:21:00.000Z,25.6
2018-09-10T16:26:00.000Z,25.5
2018-09-10T16:31:00.000Z,25.4
2018-09-10T16:36:00.000Z,25.3
2018-09-10T16:41:00.000Z,25.2
2018-09-10T16:46:00.000Z,25.1
2018-09-10T16:51:00.000Z,24.9
2018-09-10T16:56:00.000Z,24.8
2018-09-10T17:01:00.000Z,24.7
2018-09-10T17:06:00.000Z,24.6
2018-09-10T17:11:00.000Z,24.5
2018-09-10T17:16:00.000Z,24.4
2018-09-10T17:21:00.000Z,24.3
2018-09-10T17:26:00.000Z,24.2
2018-09-10T17:31:00.000Z,24.1
2018-09-10T17:36:00.000Z,24.0
2018-09-10T17:41:00.000Z,23.9
2018-09-10T17:46:00.000Z,23.8
2018-09-10T17:51:00.000Z,23.7
2018-09-10T17:56:00.000Z,23.6
2018-09-10T18:01:00.000Z,23.6
2018-09-10T18:06:00.000Z,23.5
2018-09-10T18:11:00.000Z,23.4
2018-09-10T18:16:00.000Z,23.3
2018-09-10T18:21:00.000Z,23.3
2018-09-10T18:26:00.000Z,23.2
2018-09-10T18:31:00.000Z,23.1
2018-09-10T18:36:00.000Z,23.0
2018-09-10T18:41:00.000Z,22.9
2018-09-10T18:46:00.000Z,22.8
2018-09-10T18:51:00.000Z,22.7
2018-09-10T18:56:00.000Z,22.6
2018-09-10T19:01:00.000Z,22.5
2018-09-10T19:06:00.000Z,22.4
2018-09-10T19:11:00.000Z,22.3
2018-09-10T19:16:00.000Z,22.1
2018-09-10T19:21:00.000Z,22.0
2018-09-10T19:26:00.000Z,21.9
2018-09-10T19:31:00.000Z,21.9
2018-09-10T19:36:00.000Z,21.8
2018-09-10T19:41:00.000Z,21.8
2018-09-10T19:46:00.000Z,21.7
2018-09-10T19:51:00.000Z,21.7
2018-09-10T19:56:00.000Z,21.6
2018-09-10T20:01:00.000Z,21.5
2018-09-10T20:06:00.000Z,21.5
2018-09-10T20:11:00.000Z,21.4
2018-09-10T20:16:00.000Z,21.4
2018-09-10T20:21:00.000Z,21.4
2018-09-10T20:26:00.000Z,21.4
2018-09-10T20:31:00.000Z,21.4
2018-09-10T20:36:00.000Z,21.4
2018-09-10T20:41:00.000Z,21.3
2018-09-10T20:46:00.000Z,21.3
2018-09-10T20:51:00.000Z,21.3
2018-09-10T20:56:00.000Z,21.3
2018-09-10T21:01:00.000Z,21.3
2018-09-10T21:06:00.000Z,21.3
2018-09-10T21:11:00.000Z,21.3
2018-09-10T21:16:00.000Z,21.2
2018-09-10T21:21:00.000Z,21.2
2018-09-10T21:26:00.000Z,21.2
2018-09-10T21:31:00.000Z,21.2
2018-09-10T21:36:00.000Z,21.2
2018-09-10T21:41:00.000Z,21.2
2018-09-10T21:46:00.000Z,21.1
2018-09-10T21:51:00.000Z,21.1
2018-09-10T21:56:00.000Z,21.0
2018-09-10T22:01:00.000Z,21.0
2018-09-10T22:06:00.000Z,20.9
2018-09-10T22:12:00.000Z,20.8
2018-09-10T22:17:00.000Z,20.7
2018-09-10T22:22:00.000Z,20.7
2018-09-10T22:27:00.000Z,20.6
2018-09-10T22:32:00.000Z,20.5
2018-09-10T22:37:00.000Z,20.5
2018-09-10T22:42:00.000Z,20.4
2018-09-10T22:47:00.000Z,20.4
2018-09-10T22:52:00.000Z,20.4
2018-09-10T22:57:00.000Z,20.3
2018-09-10T23:02:00.000Z,20.2
2018-09-10T23:07:00.000Z,20.2
2018-09-10T23:12:00.000Z,20.2
2018-09-10T23:17:00.000Z,20.2
2018-09-10T23:22:00.000Z,20.2
2018-09-10T23:27:00.000Z,20.2
2018-09-10T23:32:00.000Z,20.2
2018-09-10T23:37:00.000Z,20.2
2018-09-10T23:42:00.000Z,20.2
2018-09-10T23:47:00.000Z,20.1
2018-09-10T23:52:00.000Z,20.1
2018-09-10T23:57:00.000Z,20.1
